Time;durP1;ratioP1;P1;durP2;ratioP2;P2;SDS_P1;SDS_P2;PMS_P1;PMS_P2;Temp;Humidity;BMP_temperature;BMP_pressure;BME280_temperature;BME280_humidity;BME280_pressure;Samples;Min_cycle;Max_cycle;Signal;HPM_P1;HPM_P2
2021/03/01 00:00:17;;;;;;;9.43;6.28;;;;;;;8.98;49.19;101210.95;1817908;79;21073;-78
2021/03/01 00:02:46;;;;;;;9.20;6.92;;;;;;;9.00;49.15;101212.54;1817708;79;21100;-80
2021/03/01 00:05:14;;;;;;;8.75;6.47;;;;;;;9.02;48.99;101215.07;1817812;79;21168;-79
2021/03/01 00:07:43;;;;;;;8.38;5.87;;;;;;;9.04;49.10;101219.32;1817859;79;21124;-78
2021/03/01 00:10:12;;;;;;;7.03;5.70;;;;;;;9.04;49.00;101215.31;1817917;79;21399;-79
2021/03/01 00:12:42;;;;;;;7.28;5.97;;;;;;;9.04;49.03;101213.13;1817687;79;21195;-79
2021/03/01 00:15:13;;;;;;;8.08;5.75;;;;;;;9.03;49.04;101212.26;1817936;79;21060;-79
2021/03/01 00:17:41;;;;;;;9.58;6.17;;;;;;;9.02;49.05;101214.58;1818038;79;21136;-79
2021/03/01 00:20:12;;;;;;;10.32;6.30;;;;;;;9.03;49.10;101215.42;1818094;79;21061;-78
2021/03/01 00:22:40;;;;;;;9.18;6.25;;;;;;;9.02;49.12;101219.08;1817852;79;21366;-78
2021/03/01 00:25:10;;;;;;;7.28;5.92;;;;;;;9.02;49.15;101222.59;1817909;79;21068;-77
2021/03/01 00:27:38;;;;;;;7.20;5.83;;;;;;;9.03;49.09;101226.95;1788720;79;21104;-78
2021/03/01 00:30:07;;;;;;;7.30;5.75;;;;;;;9.04;49.13;101234.02;1818186;79;21567;-78
2021/03/01 00:32:36;;;;;;;7.37;5.87;;;;;;;9.06;49.12;101233.87;1817778;79;21112;-78
2021/03/01 00:35:07;;;;;;;7.08;6.03;;;;;;;9.07;49.24;101232.41;1789010;79;21356;-78
2021/03/01 00:37:35;;;;;;;7.37;5.58;;;;;;;9.08;49.14;101228.78;1788249;79;21220;-81
2021/03/01 00:40:04;;;;;;;8.18;5.60;;;;;;;9.09;48.99;101226.95;1816834;79;21619;-78
2021/03/01 00:42:33;;;;;;;6.75;5.50;;;;;;;9.10;49.03;101228.14;1817446;79;21112;-79
2021/03/01 00:45:02;;;;;;;9.45;6.15;;;;;;;9.10;49.01;101232.16;1818103;79;21564;-78
2021/03/01 00:47:30;;;;;;;9.15;6.40;;;;;;;9.09;49.16;101222.45;1818091;79;21752;-79
2021/03/01 00:49:58;;;;;;;7.37;5.62;;;;;;;9.09;49.21;101230.47;1788994;79;21080;-79
2021/03/01 00:52:26;;;;;;;7.47;5.53;;;;;;;9.09;49.29;101229.63;1818047;79;21516;-79
2021/03/01 00:54:54;;;;;;;10.05;5.75;;;;;;;9.06;49.41;101233.39;1803308;79;21613;-78
2021/03/01 00:57:22;;;;;;;9.13;5.92;;;;;;;9.08;49.25;101230.58;1794477;79;21159;-78
2021/03/01 00:59:49;;;;;;;7.87;5.55;;;;;;;9.10;49.32;101235.32;1793708;80;21382;-78
2021/03/01 01:02:18;;;;;;;7.80;5.28;;;;;;;9.13;49.36;101240.42;1760757;81;21595;-80
2021/03/01 01:04:54;;;;;;;7.12;5.12;;;;;;;9.15;49.43;101245.12;1781035;80;21120;-80
2021/03/01 01:07:22;;;;;;;6.78;5.25;;;;;;;9.18;49.25;101244.04;1757110;80;21159;-78
2021/03/01 01:09:50;;;;;;;7.67;5.53;;;;;;;9.19;49.26;101248.39;1794604;79;21672;-79
2021/03/01 01:12:18;;;;;;;5.92;5.33;;;;;;;9.20;49.03;101254.09;1794066;80;21594;-79
2021/03/01 01:14:46;;;;;;;10.72;6.60;;;;;;;9.19;48.95;101252.41;1759619;81;21569;-79
2021/03/01 01:17:15;;;;;;;8.73;6.25;;;;;;;9.15;49.02;101249.98;1783071;80;21215;-80
2021/03/01 01:19:43;;;;;;;9.13;6.30;;;;;;;9.16;48.97;101254.83;1792393;79;21179;-78
2021/03/01 01:22:11;;;;;;;8.30;5.67;;;;;;;9.14;49.10;101257.65;1792053;80;21143;-79
2021/03/01 01:24:38;;;;;;;8.70;6.05;;;;;;;9.13;49.18;101257.79;1760149;81;21807;-79
2021/03/01 01:27:06;;;;;;;7.78;5.97;;;;;;;9.13;49.19;101258.63;1784439;80;21175;-78
2021/03/01 01:29:34;;;;;;;8.85;5.55;;;;;;;9.14;49.14;101264.33;1807309;79;21650;-77
2021/03/01 01:32:02;;;;;;;8.93;6.30;;;;;;;9.14;49.13;101267.00;1816524;79;21172;-77
2021/03/01 01:34:30;;;;;;;8.95;7.20;;;;;;;9.15;49.12;101264.69;1816529;79;21646;-79
2021/03/01 01:36:58;;;;;;;8.85;6.58;;;;;;;9.17;49.00;101263.70;1816579;79;22644;-80
2021/03/01 01:39:26;;;;;;;7.92;6.40;;;;;;;9.14;48.97;101261.66;1816565;79;21199;-78
2021/03/01 01:41:55;;;;;;;9.50;6.70;;;;;;;9.15;49.00;101263.84;1816583;78;21159;-77
2021/03/01 01:44:23;;;;;;;9.98;6.72;;;;;;;9.13;49.08;101265.31;1787922;79;21164;-79
2021/03/01 01:46:51;;;;;;;10.13;6.97;;;;;;;9.13;49.14;101267.98;1818117;78;21057;-77
2021/03/01 01:49:19;;;;;;;12.25;7.20;;;;;;;9.11;49.21;101272.59;1819099;79;21123;-78
2021/03/01 01:51:47;;;;;;;10.93;7.28;;;;;;;9.13;49.18;101280.51;1822064;78;21069;-76
2021/03/01 01:54:16;;;;;;;9.75;6.30;;;;;;;9.12;49.17;101280.13;1819274;79;21544;-78
2021/03/01 01:56:45;;;;;;;8.35;5.53;;;;;;;9.10;49.27;101282.09;1789300;79;21128;-79
2021/03/01 01:59:12;;;;;;;7.17;6.17;;;;;;;9.12;49.27;101287.65;1818003;79;21634;-78
2021/03/01 02:01:40;;;;;;;6.50;5.80;;;;;;;9.14;49.30;101293.73;1817915;79;22303;-77
2021/03/01 02:04:26;;;;;;;9.05;6.17;;;;;;;9.15;49.30;101293.23;1789042;79;21516;-77
2021/03/01 02:07:11;;;;;;;8.43;6.15;;;;;;;9.15;49.30;101295.91;1813093;79;21108;-78
2021/03/01 02:10:07;;;;;;;8.23;5.83;;;;;;;9.15;49.30;101301.26;1813791;79;21064;-77
2021/03/01 02:12:53;;;;;;;8.35;5.80;;;;;;;9.14;49.30;101307.09;1817859;79;21566;-77
2021/03/01 02:15:45;;;;;;;8.15;6.62;;;;;;;9.11;49.34;101311.34;1810114;79;21776;-79
2021/03/01 02:18:14;;;;;;;10.25;7.15;;;;;;;9.09;49.40;101324.50;1817912;79;21089;-77
2021/03/01 02:20:46;;;;;;;8.48;6.50;;;;;;;9.06;49.40;101324.25;1817994;79;21577;-78
2021/03/01 02:23:15;;;;;;;7.25;5.58;;;;;;;9.06;49.43;101336.28;1817934;79;21172;-77
2021/03/01 02:25:49;;;;;;;11.95;8.48;;;;;;;9.02;49.53;101335.32;1818020;78;21700;-79
2021/03/01 02:28:17;;;;;;;19.98;13.22;;;;;;;9.01;49.58;101331.80;1818048;79;22150;-78
2021/03/01 02:30:48;;;;;;;19.70;12.73;;;;;;;9.03;49.63;101335.67;1817848;79;21112;-77
2021/03/01 02:33:22;;;;;;;10.60;7.90;;;;;;;9.01;49.62;101331.80;1788690;79;21132;-79
2021/03/01 02:35:54;;;;;;;10.25;7.85;;;;;;;9.01;49.58;101337.15;1817972;79;21069;-77
2021/03/01 02:38:26;;;;;;;9.25;7.28;;;;;;;8.99;49.57;101345.77;1818060;79;21053;-77
2021/03/01 02:40:55;;;;;;;7.62;6.83;;;;;;;8.97;49.60;101351.73;1817747;78;21133;-79
2021/03/01 02:43:24;;;;;;;8.15;7.15;;;;;;;8.95;49.63;101351.03;1817931;79;21112;-79
2021/03/01 02:45:52;;;;;;;9.03;6.55;;;;;;;8.94;49.73;101347.97;1818022;79;21444;-80
2021/03/01 02:48:19;;;;;;;6.03;5.10;;;;;;;8.93;49.75;101360.97;1788632;79;21547;-77
2021/03/01 02:50:48;;;;;;;8.10;5.67;;;;;;;8.89;49.77;101356.84;1817962;79;21100;-77
2021/03/01 02:53:16;;;;;;;7.90;5.58;;;;;;;8.88;49.87;101353.83;1817986;79;22670;-77
2021/03/01 02:55:47;;;;;;;7.67;5.95;;;;;;;8.89;49.88;101361.70;1817480;79;21144;-77
2021/03/01 02:58:18;;;;;;;7.42;5.17;;;;;;;8.92;49.93;101362.44;1817985;78;21112;-78
2021/03/01 03:00:46;;;;;;;7.53;5.60;;;;;;;8.92;49.93;101363.29;1789093;79;21152;-78
2021/03/01 03:03:14;;;;;;;9.30;6.30;;;;;;;8.90;49.88;101357.20;1788831;79;21175;-80
2021/03/01 03:05:43;;;;;;;11.65;6.00;;;;;;;8.89;49.94;101369.72;1817955;79;21351;-80
2021/03/01 03:08:12;;;;;;;9.23;6.30;;;;;;;8.89;49.93;101376.89;1817828;79;21159;-78
2021/03/01 03:10:40;;;;;;;8.38;6.58;;;;;;;8.88;49.96;101375.20;1817815;78;21044;-79
2021/03/01 03:13:11;;;;;;;8.53;7.10;;;;;;;8.87;50.01;101378.84;1788609;79;21495;-79
2021/03/01 03:15:39;;;;;;;8.00;5.60;;;;;;;8.85;50.02;101379.44;1817922;79;21467;-79
2021/03/01 03:18:12;;;;;;;8.85;5.30;;;;;;;8.81;50.06;101376.66;1817907;79;21508;-79
2021/03/01 03:20:39;;;;;;;8.90;6.25;;;;;;;8.79;50.16;101378.12;1817910;79;21136;-77
2021/03/01 03:23:08;;;;;;;9.20;7.15;;;;;;;8.80;50.18;101388.32;1816284;79;21132;-78
2021/03/01 03:25:37;;;;;;;9.65;6.80;;;;;;;8.79;50.14;101388.81;1817956;79;21057;-78
2021/03/01 03:28:06;;;;;;;11.68;8.08;;;;;;;8.79;50.18;101393.31;1818011;79;21224;-79
2021/03/01 03:30:34;;;;;;;9.70;7.72;;;;;;;8.76;50.22;101397.55;1818014;79;21359;-79
2021/03/01 03:33:03;;;;;;;12.05;7.33;;;;;;;8.77;50.28;101405.95;1817753;79;21151;-77
2021/03/01 03:35:31;;;;;;;8.50;6.60;;;;;;;8.72;50.30;101407.66;1817971;79;21072;-77
2021/03/01 03:38:22;;;;;;;7.35;5.55;;;;;;;8.70;50.39;101410.07;1818091;79;21045;-77
2021/03/01 03:40:53;;;;;;;6.80;5.65;;;;;;;8.69;50.47;101411.90;1817869;79;21036;-78
2021/03/01 03:43:21;;;;;;;10.03;6.97;;;;;;;8.69;50.51;101425.25;1789040;79;21364;-78
2021/03/01 03:45:52;;;;;;;9.60;6.75;;;;;;;8.69;50.51;101419.06;1788931;79;21068;-78
2021/03/01 03:48:21;;;;;;;7.95;6.08;;;;;;;8.72;50.52;101421.47;1818030;79;21455;-77
2021/03/01 03:50:53;;;;;;;7.87;5.75;;;;;;;8.72;50.52;101422.80;1789242;79;21064;-79
2021/03/01 03:53:20;;;;;;;8.15;6.65;;;;;;;8.71;50.50;101429.97;1818110;79;21061;-76
2021/03/01 03:55:48;;;;;;;10.03;6.85;;;;;;;8.67;50.56;101427.17;1788998;79;22351;-79
2021/03/01 03:58:19;;;;;;;6.65;5.10;;;;;;;8.67;50.56;101430.34;1818267;79;21139;-78
2021/03/01 04:00:51;;;;;;;9.13;6.10;;;;;;;8.67;50.58;101435.68;1818215;79;21046;-78
2021/03/01 04:03:19;;;;;;;8.68;6.42;;;;;;;8.66;50.60;101437.50;1818210;79;21033;-78
2021/03/01 04:05:47;;;;;;;11.20;6.70;;;;;;;8.67;50.68;101437.86;1764098;79;21068;-79
2021/03/01 04:08:14;;;;;;;9.23;5.78;;;;;;;8.69;50.69;101442.61;1818184;79;21182;-79
2021/03/01 04:10:53;;;;;;;8.83;6.08;;;;;;;8.70;50.62;101442.12;1818076;79;21187;-78
2021/03/01 04:13:23;;;;;;;8.90;6.47;;;;;;;8.69;50.64;101443.10;1818178;79;21065;-80
2021/03/01 04:15:51;;;;;;;11.90;7.67;;;;;;;8.69;50.64;101449.29;1818290;78;21536;-79
2021/03/01 04:18:32;;;;;;;13.93;8.78;;;;;;;8.69;50.60;101446.63;1818095;78;21128;-78
2021/03/01 04:21:03;;;;;;;11.78;7.53;;;;;;;8.68;50.63;101450.77;1817872;79;21361;-79
2021/03/01 04:23:35;;;;;;;9.10;6.33;;;;;;;8.68;50.67;101454.77;1812845;78;21178;-80
2021/03/01 04:26:06;;;;;;;14.20;8.45;;;;;;;8.68;50.69;101456.95;1785617;79;21081;-79
2021/03/01 04:28:34;;;;;;;10.60;8.03;;;;;;;8.70;50.66;101456.81;1785337;79;21597;-78
2021/03/01 04:31:04;;;;;;;14.73;9.75;;;;;;;8.71;50.67;101465.19;1785874;79;21179;-81
2021/03/01 04:33:34;;;;;;;14.80;9.40;;;;;;;8.70;50.66;101464.83;1818078;79;21177;-79
2021/03/01 04:36:06;;;;;;;13.08;9.33;;;;;;;8.70;50.66;101463.00;1789257;79;21204;-75
2021/03/01 04:38:35;;;;;;;14.20;9.08;;;;;;;8.70;50.67;101467.50;1784657;79;21188;-76
2021/03/01 04:41:05;;;;;;;14.53;9.80;;;;;;;8.70;50.66;101468.84;1777427;79;21443;-75
2021/03/01 04:43:35;;;;;;;13.53;9.05;;;;;;;8.70;50.66;101471.50;1793061;79;21168;-76
2021/03/01 04:46:03;;;;;;;16.12;10.82;;;;;;;8.68;50.65;101477.47;1811744;79;21285;-75
2021/03/01 04:48:31;;;;;;;14.55;10.55;;;;;;;8.69;50.66;101486.69;1793401;79;21176;-76
2021/03/01 04:50:59;;;;;;;18.60;11.93;;;;;;;8.69;50.68;101485.84;1755748;80;21219;-78
2021/03/01 04:53:28;;;;;;;18.42;12.65;;;;;;;8.70;50.70;101486.20;1784011;80;21151;-77
2021/03/01 04:55:57;;;;;;;18.10;11.97;;;;;;;8.70;50.67;101487.53;1784610;80;21179;-78
2021/03/01 04:58:25;;;;;;;20.12;12.63;;;;;;;8.72;50.69;101493.59;1784559;80;21804;-79
2021/03/01 05:00:54;;;;;;;17.90;12.15;;;;;;;8.71;50.65;101495.41;1785681;79;21635;-77
2021/03/01 05:03:22;;;;;;;20.72;13.45;;;;;;;8.71;50.65;101501.24;1787979;79;21646;-77
2021/03/01 05:05:51;;;;;;;23.45;14.38;;;;;;;8.69;50.68;101508.05;1785956;79;21096;-75
2021/03/01 05:08:19;;;;;;;19.87;12.13;;;;;;;8.69;50.70;101512.55;1785580;79;21136;-76
2021/03/01 05:10:47;;;;;;;19.32;12.68;;;;;;;8.67;50.71;101507.30;1788161;79;21372;-76
2021/03/01 05:13:15;;;;;;;18.30;12.05;;;;;;;8.68;50.74;101517.05;1785993;79;21204;-77
2021/03/01 05:15:43;;;;;;;18.80;11.55;;;;;;;8.70;50.79;101520.92;1804534;79;21181;-77
2021/03/01 05:18:12;;;;;;;20.02;12.15;;;;;;;8.72;50.77;101521.18;1801299;79;21176;-77
2021/03/01 05:20:40;;;;;;;22.25;14.20;;;;;;;8.72;50.73;101518.96;1814355;79;21603;-77
2021/03/01 05:23:08;;;;;;;21.50;14.18;;;;;;;8.72;50.75;101525.64;1808949;79;22176;-77
2021/03/01 05:25:38;;;;;;;21.25;14.38;;;;;;;8.72;50.73;101530.98;1793361;79;21783;-76
2021/03/01 05:28:06;;;;;;;20.70;13.05;;;;;;;8.71;50.74;101530.62;1802629;79;21170;-76
2021/03/01 05:30:34;;;;;;;23.92;13.83;;;;;;;8.70;50.74;101529.78;1800314;79;21157;-76
2021/03/01 05:33:02;;;;;;;19.75;11.10;;;;;;;8.72;50.74;101540.33;1787621;77;21171;-76
2021/03/01 05:35:31;;;;;;;25.15;16.62;;;;;;;8.71;50.75;101554.17;1782983;80;21726;-76
2021/03/01 05:37:59;;;;;;;29.27;18.75;;;;;;;8.73;50.75;101553.59;1784372;80;21160;-77
2021/03/01 05:40:26;;;;;;;24.67;15.18;;;;;;;8.75;50.79;101555.64;1783681;79;21514;-76
2021/03/01 05:42:55;;;;;;;21.05;13.72;;;;;;;8.78;50.74;101567.92;1797916;79;21215;-75
2021/03/01 05:45:22;;;;;;;17.65;11.65;;;;;;;8.80;50.71;101569.98;1756009;80;21179;-76
2021/03/01 05:47:50;;;;;;;17.25;11.15;;;;;;;8.79;50.65;101570.47;1797150;77;22681;-77
2021/03/01 05:50:18;;;;;;;17.87;10.75;;;;;;;8.79;50.63;101576.30;1792435;77;21195;-76
2021/03/01 05:52:50;;;;;;;17.80;10.38;;;;;;;8.77;50.60;101582.26;1784816;79;21254;-75
2021/03/01 05:55:21;;;;;;;16.45;10.05;;;;;;;8.76;50.61;101586.72;1816017;79;21523;-76
2021/03/01 05:57:49;;;;;;;14.98;9.18;;;;;;;8.76;50.61;101589.87;1795334;77;21176;-78
2021/03/01 06:00:17;;;;;;;13.30;9.18;;;;;;;8.76;50.65;101592.55;1803214;77;21423;-76
2021/03/01 06:02:45;;;;;;;12.80;8.63;;;;;;;8.76;50.68;101594.73;1793713;77;21196;-78
2021/03/01 06:05:15;;;;;;;17.45;11.12;;;;;;;8.79;50.65;101596.33;1791558;77;21192;-77
2021/03/01 06:07:43;;;;;;;18.07;11.35;;;;;;;8.80;50.63;101600.70;1773708;79;21227;-77
2021/03/01 06:10:11;;;;;;;16.97;11.25;;;;;;;8.79;50.57;101593.17;1793996;79;21189;-77
2021/03/01 06:12:39;;;;;;;16.52;11.43;;;;;;;8.82;50.56;101604.13;1792594;79;21327;-76
2021/03/01 06:15:09;;;;;;;17.30;10.88;;;;;;;8.81;50.57;101596.59;1794423;79;21780;-76
2021/03/01 06:17:36;;;;;;;17.52;10.80;;;;;;;8.81;50.55;101598.39;1797990;77;21176;-76
2021/03/01 06:20:10;;;;;;;12.45;9.23;;;;;;;8.82;50.48;101610.80;1794464;77;21207;-76
2021/03/01 06:22:42;;;;;;;14.25;8.93;;;;;;;8.83;50.43;101608.48;1795896;77;21099;-76
2021/03/01 06:25:15;;;;;;;14.53;9.53;;;;;;;8.83;50.43;101616.50;1795802;77;22579;-76
2021/03/01 06:27:57;;;;;;;12.60;8.50;;;;;;;8.82;50.42;101618.33;1797817;77;21120;-77
2021/03/01 06:30:33;;;;;;;15.45;10.63;;;;;;;8.86;50.41;101621.62;1794126;77;21119;-76
2021/03/01 06:33:14;;;;;;;16.07;11.70;;;;;;;8.87;50.47;101627.32;1809017;77;21128;-77
2021/03/01 06:35:57;;;;;;;16.17;11.18;;;;;;;8.90;50.46;101621.72;1766089;79;129961;-75
2021/03/01 06:38:35;;;;;;;15.58;11.05;;;;;;;8.92;50.41;101629.15;1761756;79;21298;-77
2021/03/01 06:41:16;;;;;;;15.38;10.18;;;;;;;8.94;50.37;101633.03;1762932;79;21141;-77
2021/03/01 06:44:00;;;;;;;14.53;9.30;;;;;;;8.96;50.44;101635.11;1758967;80;21146;-76
2021/03/01 06:46:30;;;;;;;12.78;8.83;;;;;;;8.97;50.31;101634.14;1766257;79;21163;-76
2021/03/01 06:49:13;;;;;;;11.15;7.05;;;;;;;8.99;50.26;101641.53;1768371;79;21131;-76
2021/03/01 06:51:53;;;;;;;11.68;7.72;;;;;;;9.02;50.21;101643.49;1840366;75;23282;-76
2021/03/01 06:54:22;;;;;;;11.80;8.05;;;;;;;8.98;50.19;101651.86;1832983;75;21592;-77
2021/03/01 06:56:50;;;;;;;12.25;8.50;;;;;;;9.01;50.17;101659.17;1837311;76;21314;-75
2021/03/01 06:59:19;;;;;;;13.05;9.33;;;;;;;9.03;50.14;101663.89;1841444;75;21117;-76
2021/03/01 07:02:00;;;;;;;11.93;8.45;;;;;;;9.04;50.08;101664.28;1807912;77;21113;-76
2021/03/01 07:04:30;;;;;;;13.13;9.25;;;;;;;9.03;50.10;101670.58;1822779;76;21561;-79
2021/03/01 07:06:59;;;;;;;12.45;9.03;;;;;;;9.04;50.05;101671.45;1820442;76;21567;-76
2021/03/01 07:09:30;;;;;;;16.95;11.90;;;;;;;9.05;50.02;101683.36;1823615;76;21409;-76
2021/03/01 07:11:57;;;;;;;15.13;10.08;;;;;;;9.03;50.06;101691.95;1825225;76;21137;-76
2021/03/01 07:14:27;;;;;;;11.93;8.23;;;;;;;9.05;49.99;101690.52;1820488;76;21214;-77
2021/03/01 07:16:59;;;;;;;13.78;8.40;;;;;;;9.05;49.97;101703.89;1822059;76;21192;-76
2021/03/01 07:19:30;;;;;;;16.15;9.68;;;;;;;9.06;49.96;101699.75;1824670;76;21452;-77
2021/03/01 07:22:00;;;;;;;11.65;8.20;;;;;;;9.08;49.95;101715.20;1814486;77;22158;-75
2021/03/01 07:24:30;;;;;;;11.15;7.62;;;;;;;9.08;49.90;101717.87;1815154;77;21114;-77
2021/03/01 07:27:04;;;;;;;11.12;7.33;;;;;;;9.10;49.85;101717.25;1810709;77;21096;-77
2021/03/01 07:29:34;;;;;;;11.30;7.55;;;;;;;9.09;49.82;101722.24;1821667;76;21111;-75
2021/03/01 07:32:05;;;;;;;10.90;7.35;;;;;;;9.10;49.81;101725.77;1822674;76;21093;-76
2021/03/01 07:34:38;;;;;;;11.88;8.10;;;;;;;9.11;49.74;101729.64;1822924;76;21356;-76
2021/03/01 07:37:07;;;;;;;9.90;7.60;;;;;;;9.11;49.70;101728.80;1820567;76;21129;-77
2021/03/01 07:39:40;;;;;;;11.48;7.75;;;;;;;9.10;49.70;101729.28;1821184;76;21148;-76
2021/03/01 07:42:06;;;;;;;11.73;7.30;;;;;;;9.10;49.71;101729.28;1823011;76;21117;-76
2021/03/01 07:44:34;;;;;;;11.65;8.35;;;;;;;9.09;49.68;101734.27;1820837;76;21127;-76
2021/03/01 07:47:03;;;;;;;10.75;8.35;;;;;;;9.10;49.70;101737.30;1819504;76;23141;-76
2021/03/01 07:49:43;;;;;;;13.15;8.98;;;;;;;9.12;49.71;101743.86;1819679;76;21573;-76
2021/03/01 07:52:26;;;;;;;10.10;7.92;;;;;;;9.13;49.68;101745.09;1821704;76;21597;-78
2021/03/01 07:55:05;;;;;;;10.60;7.10;;;;;;;9.12;49.67;101747.38;1823247;76;21113;-78
2021/03/01 07:57:35;;;;;;;12.33;8.80;;;;;;;9.12;49.58;101747.87;1809054;78;21135;-80
2021/03/01 08:00:24;;;;;;;13.40;9.13;;;;;;;9.12;49.55;101754.06;1804535;77;21356;-75
2021/03/01 08:02:52;;;;;;;16.55;10.13;;;;;;;9.12;49.54;101758.07;1818535;77;21176;-76
2021/03/01 08:05:29;;;;;;;23.05;11.15;;;;;;;9.12;49.63;101758.07;1815463;77;21161;-75
2021/03/01 08:07:59;;;;;;;12.60;7.92;;;;;;;9.13;49.59;101763.81;1769173;77;21176;-77
2021/03/01 08:10:37;;;;;;;11.50;8.38;;;;;;;9.16;49.47;101761.37;1799098;77;21136;-76
2021/03/01 08:13:11;;;;;;;14.25;10.05;;;;;;;9.18;49.36;101762.61;1821670;77;21457;-78
2021/03/01 08:15:43;;;;;;;11.83;7.78;;;;;;;9.21;49.24;101769.89;1817653;77;21127;-75
2021/03/01 08:18:13;;;;;;;10.18;7.55;;;;;;;9.24;49.14;101772.34;1818578;77;21147;-77
2021/03/01 08:20:46;;;;;;;9.70;7.45;;;;;;;9.26;49.04;101774.88;1819229;76;21121;-77
2021/03/01 08:23:14;;;;;;;12.15;7.53;;;;;;;9.26;49.04;101782.41;1836154;75;21171;-75
2021/03/01 08:25:54;;;;;;;8.58;6.33;;;;;;;9.26;49.03;101779.73;1819833;76;21333;-77
2021/03/01 08:28:32;;;;;;;9.53;6.87;;;;;;;9.27;49.06;101785.48;1816684;76;21149;-76
2021/03/01 08:31:12;;;;;;;12.25;8.53;;;;;;;9.35;48.82;101787.55;1818992;76;21122;-77
2021/03/01 08:33:40;;;;;;;13.68;9.95;;;;;;;9.45;48.51;101787.69;1817926;76;21114;-79
2021/03/01 08:36:18;;;;;;;13.43;9.40;;;;;;;9.44;48.35;101786.84;1766279;76;21129;-78
2021/03/01 08:38:50;;;;;;;10.58;6.75;;;;;;;9.44;48.37;101795.34;1814235;77;21145;-76
2021/03/01 08:41:21;;;;;;;11.08;7.75;;;;;;;9.46;48.42;101797.44;1840566;75;21098;-77
2021/03/01 08:43:56;;;;;;;10.03;7.10;;;;;;;9.49;48.48;101795.84;1812071;77;22201;-76
2021/03/01 08:46:21;;;;;;;12.00;7.10;;;;;;;9.51;48.45;101797.93;1780040;76;44385;-77
2021/03/01 08:48:51;;;;;;;8.38;6.78;;;;;;;9.54;48.27;101804.39;1763975;79;21129;-75
2021/03/01 08:51:19;;;;;;;13.45;8.70;;;;;;;9.55;48.09;101810.95;1761971;79;21453;-78
2021/03/01 08:53:54;;;;;;;9.85;7.85;;;;;;;9.40;48.44;101813.44;1761902;79;21150;-77
2021/03/01 08:56:28;;;;;;;9.53;6.58;;;;;;;9.55;48.10;101815.45;1737825;80;21136;-78
2021/03/01 08:58:55;;;;;;;8.78;6.55;;;;;;;9.49;48.19;101823.44;1766987;78;41073;-79
2021/03/01 09:01:23;;;;;;;10.98;6.60;;;;;;;9.59;47.96;101821.78;1753792;79;21220;-77
2021/03/01 09:03:51;;;;;;;7.72;5.75;;;;;;;9.61;47.91;101817.16;1753064;80;21211;-77
2021/03/01 09:06:21;;;;;;;7.85;5.75;;;;;;;9.62;47.85;101824.20;1746344;80;21215;-78
2021/03/01 09:08:55;;;;;;;7.12;5.80;;;;;;;9.63;47.85;101824.59;1780600;78;21189;-79
2021/03/01 09:11:30;;;;;;;7.12;5.53;;;;;;;9.64;47.80;101828.11;1781715;78;21100;-77
2021/03/01 09:14:02;;;;;;;8.88;5.83;;;;;;;9.58;47.87;101828.56;1780026;78;21137;-78
2021/03/01 09:16:37;;;;;;;7.80;5.55;;;;;;;9.52;48.10;101835.25;1782599;79;22029;-77
2021/03/01 09:19:11;;;;;;;7.10;5.12;;;;;;;9.55;48.04;101836.36;1779272;78;21113;-77
2021/03/01 09:21:43;;;;;;;7.92;6.12;;;;;;;9.52;47.98;101836.58;1757036;79;21195;-79
2021/03/01 09:24:18;;;;;;;7.83;5.80;;;;;;;9.54;47.89;101837.34;1759268;79;21122;-77
2021/03/01 09:26:50;;;;;;;6.92;5.00;;;;;;;9.55;47.90;101837.70;1756681;80;21567;-77
2021/03/01 09:29:31;;;;;;;6.72;5.10;;;;;;;9.56;47.87;101844.75;1739469;79;21513;-78
2021/03/01 09:34:47;;;;;;;5.62;4.28;;;;;;;9.63;47.62;101845.14;1827766;75;22754;-76
2021/03/01 09:37:19;;;;;;;6.12;4.35;;;;;;;9.59;47.37;101855.22;1791816;76;21204;-77
2021/03/01 09:39:50;;;;;;;7.33;5.35;;;;;;;9.60;47.20;101855.58;1783557;78;21210;-77
2021/03/01 09:42:18;;;;;;;8.18;5.55;;;;;;;9.61;47.21;101859.95;1819036;76;21078;-77
2021/03/01 09:44:49;;;;;;;12.15;7.95;;;;;;;9.59;47.05;101859.23;1821944;76;21201;-78
2021/03/01 09:47:17;;;;;;;9.95;6.22;;;;;;;9.61;47.02;101865.80;1760506;78;21281;-76
2021/03/01 09:49:46;;;;;;;13.00;7.92;;;;;;;9.62;46.87;101871.02;1820867;76;21169;-78
2021/03/01 09:52:16;;;;;;;10.38;7.05;;;;;;;9.64;46.75;101865.08;1792902;76;23274;-76
2021/03/01 09:54:49;;;;;;;8.05;6.00;;;;;;;9.65;46.65;101866.78;1818302;76;21426;-77
2021/03/01 09:57:17;;;;;;;8.23;5.70;;;;;;;9.68;46.66;101867.53;1822787;76;21562;-76
2021/03/01 09:59:48;;;;;;;7.00;5.35;;;;;;;9.71;46.34;101866.78;1822355;76;21439;-78
2021/03/01 10:02:20;;;;;;;7.35;5.33;;;;;;;9.74;46.39;101871.06;1826103;76;21090;-75
2021/03/01 10:04:52;;;;;;;7.05;5.97;;;;;;;9.77;46.40;101870.84;1824828;76;21231;-77
2021/03/01 10:07:27;;;;;;;7.30;5.03;;;;;;;9.79;46.44;101874.23;1817741;76;21117;-79
2021/03/01 10:09:57;;;;;;;8.50;6.15;;;;;;;9.80;46.06;101878.12;1829663;76;21176;-77
2021/03/01 10:12:27;;;;;;;7.20;5.97;;;;;;;9.79;45.91;101879.09;1823534;76;21183;-77
2021/03/01 10:14:58;;;;;;;8.70;6.12;;;;;;;9.79;46.01;101886.27;1824151;76;21196;-77
2021/03/01 10:17:33;;;;;;;7.17;5.50;;;;;;;9.80;46.24;101884.80;1825510;76;21386;-75
2021/03/01 10:20:12;;;;;;;7.53;5.28;;;;;;;9.80;46.25;101886.63;1825835;76;21200;-76
2021/03/01 10:23:04;;;;;;;7.72;5.75;;;;;;;9.82;46.00;101888.72;1825250;76;21204;-76
2021/03/01 10:25:36;;;;;;;7.85;6.05;;;;;;;9.83;46.04;101887.74;1824879;76;21180;-76
2021/03/01 10:28:27;;;;;;;7.00;5.78;;;;;;;9.83;45.76;101879.72;1830033;76;21523;-77
2021/03/01 10:31:02;;;;;;;8.88;6.17;;;;;;;9.85;45.67;101885.30;1803255;76;21378;-77
2021/03/01 10:33:31;;;;;;;6.85;5.55;;;;;;;9.87;45.66;101879.36;1830869;76;21561;-77
2021/03/01 10:36:11;;;;;;;7.33;5.40;;;;;;;9.89;45.42;101885.44;1826443;76;21445;-75
2021/03/01 10:38:55;;;;;;;9.80;6.22;;;;;;;9.90;45.56;101878.25;1827563;76;21078;-77
2021/03/01 10:41:26;;;;;;;8.03;6.67;;;;;;;9.92;45.74;101881.68;1828671;76;21093;-78
2021/03/01 10:44:02;;;;;;;8.60;6.42;;;;;;;9.93;45.90;101879.36;1792234;78;21427;-77
2021/03/01 10:46:40;;;;;;;;;;;;;;;9.96;45.95;101883.15;1828109;76;21137;-77
2021/03/01 10:49:24;;;;;;;10.20;6.40;;;;;;;9.97;46.03;101882.17;1825702;76;20297;-79
2021/03/01 10:51:54;;;;;;;8.55;5.65;;;;;;;9.98;46.13;101878.52;1822519;76;31039;-75
2021/03/01 10:54:22;;;;;;;8.95;5.40;;;;;;;10.00;46.26;101879.27;1783551;78;50351;-78
2021/03/01 10:56:50;;;;;;;6.33;5.22;;;;;;;10.02;46.40;101884.00;1751222;78;40887;-76
2021/03/01 10:59:18;;;;;;;6.40;5.10;;;;;;;10.03;46.54;101872.31;1786831;78;21884;-78
2021/03/01 11:01:47;;;;;;;6.97;5.50;;;;;;;10.05;46.50;101877.08;1800259;77;147411;-76
2021/03/01 11:04:16;;;;;;;8.03;5.22;;;;;;;10.07;46.47;101875.61;1786932;78;21710;-77
2021/03/01 11:06:50;;;;;;;7.55;5.25;;;;;;;10.04;46.39;101876.72;1783947;78;21694;-75
2021/03/01 11:09:19;;;;;;;8.33;5.15;;;;;;;10.02;46.50;101884.48;1796664;77;25637;-76
2021/03/01 11:11:49;;;;;;;8.08;5.75;;;;;;;9.98;46.43;101879.86;1778753;77;156857;-75
2021/03/01 11:14:17;;;;;;;7.37;5.65;;;;;;;9.97;46.30;101884.84;1755296;77;185393;-76
2021/03/01 11:16:46;;;;;;;9.40;5.70;;;;;;;9.95;46.29;101885.47;1778959;78;39574;-78
2021/03/01 11:19:16;;;;;;;7.87;5.40;;;;;;;9.95;46.20;101884.13;1744953;79;35388;-77
2021/03/01 11:21:45;;;;;;;6.20;5.22;;;;;;;9.94;46.16;101882.40;1746615;80;21381;-76
2021/03/01 11:24:13;;;;;;;6.45;5.10;;;;;;;10.02;46.06;101881.81;1745804;80;21180;-76
2021/03/01 11:26:42;;;;;;;8.28;4.90;;;;;;;10.15;45.65;101878.55;1733256;80;47383;-76
2021/03/01 11:29:10;;;;;;;7.75;5.12;;;;;;;10.15;45.64;101875.38;1786339;77;28355;-76
2021/03/01 11:31:38;;;;;;;6.45;4.40;;;;;;;10.18;45.59;101871.62;1778633;77;31163;-78
2021/03/01 11:34:07;;;;;;;4.87;4.00;;;;;;;10.19;45.42;101875.14;1743791;80;21244;-76
2021/03/01 11:36:35;;;;;;;6.12;4.20;;;;;;;10.19;45.29;101865.28;1747629;80;21314;-75
2021/03/01 11:39:08;;;;;;;6.10;4.92;;;;;;;10.21;45.22;101864.66;1746391;79;34797;-77
2021/03/01 11:41:38;;;;;;;8.43;5.03;;;;;;;10.23;45.33;101869.42;1750187;80;21515;-75
2021/03/01 11:44:08;;;;;;;6.53;4.85;;;;;;;10.24;45.43;101868.48;1764367;80;21089;-77
2021/03/01 11:46:37;;;;;;;6.80;5.00;;;;;;;10.29;45.45;101870.79;1761237;80;23223;-77